ADDS METAR Data INFO
IDs: Format: Raw Decoded Include TAF

Data at: 1120 UTC 21 Feb 2018

KGGP 201515Z AUTO 22015G20KT 10SM -RA SCT028 OVC036 17/15 A3001 RMK AO2 P0001
KGGP 201455Z AUTO 23012KT 3SM +RA SCT022 BKN038 OVC055 16/15 A3001 RMK AO2 P0016
KGGP 201435Z AUTO 22012KT 10SM RA OVC022 16/15 A3001 RMK AO2 P0004
KGGP 201415Z AUTO 24014G18KT 7SM RA OVC022 17/15 A3000 RMK AO2 P0002
KGGP 201355Z AUTO 21016G24KT 7SM -RA BKN025 OVC060 17/15 A2997 RMK AO2 P0002
KGGP 201335Z AUTO 21015G20KT 10SM OVC023 17/15 A2996 RMK AO2 P0001
KGGP 201315Z AUTO 23010KT 7SM RA OVC023 17/14 A2997 RMK AO2 P0001
KGGP 201255Z AUTO 22011G17KT 10SM OVC025 17/14 A2996 RMK AO2 P0003
KGGP 201235Z AUTO 22013G20KT 10SM -RA BKN027 OVC065 17/15 A2995 RMK AO2 P0002
KGGP 201215Z AUTO 20018G27KT 7SM BKN065 OVC085 17/14 A2993 RMK AO2
KGGP 201155Z AUTO 20019KT 10SM SCT065 OVC085 17/14 A2994 RMK AO2
KGGP 201135Z AUTO 20019KT 10SM OVC085 17/14 A2994 RMK AO2
KGGP 201115Z AUTO 19018G23KT 10SM OVC085 16/13 A2993 RMK AO2
KGGP 201055Z AUTO 20019G23KT 10SM OVC075 16/13 A2994 RMK AO2
KGGP 201035Z AUTO 20017G22KT 10SM OVC075 16/13 A2994 RMK AO2
KGGP 201015Z AUTO 19015KT 10SM SCT075 OVC120 16/13 A2994 RMK AO2
KGGP 200955Z AUTO 19014KT 10SM SCT070 BKN085 OVC110 16/13 A2994 RMK AO2
KGGP 200935Z AUTO 18013KT 10SM SCT070 OVC095 15/13 A2993 RMK AO2
KGGP 200915Z AUTO 19010KT 10SM OVC095 15/13 A2994 RMK AO2
KGGP 200855Z AUTO 20011KT 10SM SCT075 OVC085 15/13 A2994 RMK AO2
KGGP 200835Z AUTO 20013KT 10SM -RA SCT060 SCT070 OVC080 16/13 A2995 RMK AO2
KGGP 200815Z AUTO 20013KT 10SM RA BKN055 OVC080 16/13 A2995 RMK AO2
KGGP 200755Z AUTO 20014G18KT 10SM SCT055 BKN080 OVC100 15/13 A2995 RMK AO2
KGGP 200735Z AUTO 20013G19KT 10SM -RA SCT070 BKN085 OVC110 15/13 A2995 RMK AO2
KGGP 200715Z AUTO 21015KT 10SM -RA SCT041 OVC070 16/13 A2995 RMK AO2
KGGP 200655Z AUTO 21017G23KT 10SM SCT041 OVC060 16/13 A2995 RMK AO2
KGGP 200635Z AUTO 21019G22KT 10SM OVC060 16/13 A2994 RMK AO2
KGGP 200615Z AUTO 20016G22KT 10SM OVC060 16/12 A2994 RMK AO2
KGGP 200555Z AUTO 19016G21KT 10SM BKN060 15/12 A2993 RMK AO2
KGGP 200535Z AUTO 19017KT 10SM OVC060 16/12 A2992 RMK AO2
KGGP 200515Z AUTO 19018G22KT 10SM OVC060 15/12 A2992 RMK AO2
KGGP 200455Z AUTO 19017KT 10SM OVC060 15/12 A2992 RMK AO2
KGGP 200435Z AUTO 19015KT 10SM SCT044 OVC060 15/12 A2993 RMK AO2
KGGP 200415Z AUTO 17016G21KT 10SM SCT044 OVC050 15/12 A2993 RMK AO2
KGGP 200355Z AUTO 18014G18KT 10SM OVC050 15/13 A2993 RMK AO2
KGGP 200335Z AUTO 18015KT 10SM OVC050 15/13 A2994 RMK AO2
KGGP 200315Z AUTO 17010KT 10SM OVC050 15/13 A2994 RMK AO2
KGGP 200255Z AUTO 17011KT 10SM SCT044 OVC050 15/13 A2994 RMK AO2 P0001
KGGP 200235Z AUTO 18010KT 10SM SCT044 OVC060 14/13 A2994 RMK AO2 P0001
KGGP 200215Z AUTO 17010KT 10SM OVC060 14/13 A2994 RMK AO2 P0001
KGGP 200155Z AUTO 17010KT 10SM RA OVC050 14/13 A2995 RMK AO2 P0003
KGGP 200135Z AUTO 18010KT 10SM RA SCT040 BKN049 OVC090 14/13 A2996 RMK AO2 P0003
KGGP 200115Z AUTO 22014G17KT 5SM RA BKN046 BKN055 OVC080 15/13 A2999 RMK AO2 P0002
KGGP 200055Z AUTO 21017G21KT 7SM -RA SCT047 BKN070 OVC090 15/13 A2998 RMK AO2 P0003
KGGP 200035Z AUTO 21014G22KT 10SM -RA SCT080 OVC100 15/13 A2997 RMK AO2 P0002
KGGP 200015Z AUTO 21017G23KT 10SM -RA OVC100 15/13 A2997 RMK AO2 P0001
KGGP 192355Z AUTO 21016KT 10SM -RA SCT034 SCT060 OVC095 15/13 A2996 RMK AO2 P0002
KGGP 192335Z AUTO 20013G18KT 7SM -RA SCT036 BKN060 OVC095 15/13 A2996 RMK AO2 P0002